createdAt,value
2023-04-03T00:00:02.551Z,31.2230
2023-04-03T00:00:13.580Z,31.2390
2023-04-03T00:00:24.614Z,31.2390
2023-04-03T00:00:36.016Z,31.2390
2023-04-03T00:00:47.357Z,31.2610
2023-04-03T00:00:58.419Z,31.2430
2023-04-03T00:01:09.443Z,31.2320
2023-04-03T00:01:20.534Z,31.2280
2023-04-03T00:01:31.573Z,31.2320
2023-04-03T00:01:42.715Z,31.2250
2023-04-03T00:01:53.840Z,31.2430
2023-04-03T00:02:04.960Z,31.2380
2023-04-03T00:02:16.116Z,31.2380
2023-04-03T00:02:27.245Z,31.2430
2023-04-03T00:02:38.466Z,31.2380
2023-04-03T00:02:49.658Z,31.2320
2023-04-03T00:03:00.788Z,31.2490
2023-04-03T00:03:11.869Z,31.2540
2023-04-03T00:03:22.921Z,31.2430
2023-04-03T00:03:33.986Z,31.2380
2023-04-03T00:03:45.050Z,31.2430
2023-04-03T00:03:56.146Z,31.2320
2023-04-03T00:04:07.201Z,31.2200
2023-04-03T00:04:18.460Z,31.2140
2023-04-03T00:04:29.609Z,31.2140
2023-04-03T00:04:40.697Z,31.2030
2023-04-03T00:04:51.763Z,31.1920
2023-04-03T00:05:02.802Z,31.1980
2023-04-03T00:05:13.891Z,31.1980
2023-04-03T00:05:24.914Z,31.1920
2023-04-03T00:05:35.967Z,31.1810
2023-04-03T00:05:47.014Z,31.1710
2023-04-03T00:05:58.062Z,31.1650
2023-04-03T00:06:09.110Z,31.1760
2023-04-03T00:06:20.153Z,31.1650
2023-04-03T00:06:31.192Z,31.1530
2023-04-03T00:06:42.458Z,31.1420
2023-04-03T00:06:53.515Z,31.1420
2023-04-03T00:07:04.563Z,31.1310
2023-04-03T00:07:15.596Z,31.1390
2023-04-03T00:07:26.668Z,31.1160
2023-04-03T00:07:37.694Z,31.1110
2023-04-03T00:07:48.765Z,31.0890
2023-04-03T00:07:59.816Z,31.0830
2023-04-03T00:08:10.832Z,31.0750
2023-04-03T00:08:21.906Z,31.0670
2023-04-03T00:08:32.954Z,31.0560
2023-04-03T00:08:44.015Z,31.0530
2023-04-03T00:08:55.047Z,31.0310
2023-04-03T00:09:06.600Z,31.0310
2023-04-03T00:09:18.394Z,31.0750
2023-04-03T00:09:29.453Z,31.0530
2023-04-03T00:09:40.504Z,31.0480
2023-04-03T00:09:51.613Z,31.0310
2023-04-03T00:10:02.637Z,31.0200
2023-04-03T00:10:13.677Z,31.0090
2023-04-03T00:10:24.743Z,30.9970
2023-04-03T00:10:36.229Z,30.9910
2023-04-03T00:10:47.653Z,31.0200
2023-04-03T00:10:58.721Z,30.9910
2023-04-03T00:11:09.778Z,30.9700
2023-04-03T00:11:20.806Z,30.9640
2023-04-03T00:11:31.885Z,30.9530
2023-04-03T00:11:42.949Z,30.9530
2023-04-03T00:11:54.002Z,30.9420
2023-04-03T00:12:05.070Z,30.9310
2023-04-03T00:12:16.134Z,30.9190
2023-04-03T00:12:27.172Z,30.9140
2023-04-03T00:12:38.237Z,30.8920
2023-04-03T00:12:49.254Z,30.8860
2023-04-03T00:13:00.302Z,30.8750
2023-04-03T00:13:11.367Z,30.8750
2023-04-03T00:13:22.398Z,30.8700
2023-04-03T00:13:33.421Z,30.8640
2023-04-03T00:13:44.482Z,30.8540
2023-04-03T00:13:55.523Z,30.8420
2023-04-03T00:14:06.584Z,30.8390
2023-04-03T00:14:17.614Z,30.8330
2023-04-03T00:14:28.628Z,30.8160
2023-04-03T00:14:39.704Z,30.8140
2023-04-03T00:14:50.737Z,30.8160
2023-04-03T00:15:01.824Z,30.8100
2023-04-03T00:15:12.887Z,30.8160
2023-04-03T00:15:23.948Z,30.7880
2023-04-03T00:15:35.011Z,30.7940
2023-04-03T00:15:46.061Z,30.7810
2023-04-03T00:15:57.095Z,30.7810
2023-04-03T00:16:08.156Z,30.7690
2023-04-03T00:16:19.444Z,30.7640
2023-04-03T00:16:30.514Z,30.7750
2023-04-03T00:16:41.651Z,30.7530
2023-04-03T00:16:52.733Z,30.7470
2023-04-03T00:17:03.839Z,30.7470
2023-04-03T00:17:14.847Z,30.7360
2023-04-03T00:17:25.902Z,30.7420
2023-04-03T00:17:37.040Z,30.7470
2023-04-03T00:17:48.080Z,30.7360
2023-04-03T00:17:59.217Z,30.7260
2023-04-03T00:18:10.287Z,30.7270
2023-04-03T00:18:21.329Z,30.7050
2023-04-03T00:18:32.353Z,30.7050
2023-04-03T00:18:43.455Z,30.6750
2023-04-03T00:18:54.503Z,30.6750
2023-04-03T00:19:05.568Z,30.6750
2023-04-03T00:19:16.623Z,30.6800
2023-04-03T00:19:27.657Z,30.6530
2023-04-03T00:19:38.698Z,30.6600
2023-04-03T00:19:49.757Z,30.6660
2023-04-03T00:20:00.809Z,30.6490
2023-04-03T00:20:11.895Z,30.6420
2023-04-03T00:20:22.964Z,30.6420
2023-04-03T00:20:34.217Z,30.6260
2023-04-03T00:20:45.632Z,30.6310
2023-04-03T00:20:56.710Z,30.6260
2023-04-03T00:21:07.763Z,30.6190
2023-04-03T00:21:18.792Z,30.6080
2023-04-03T00:21:29.853Z,30.6190
2023-04-03T00:21:40.905Z,30.6030
2023-04-03T00:21:51.971Z,30.6030
2023-04-03T00:22:03.053Z,30.6030
2023-04-03T00:22:14.075Z,30.5880
2023-04-03T00:22:25.117Z,30.5770
2023-04-03T00:22:36.189Z,30.5660
2023-04-03T00:22:47.255Z,30.5610
2023-04-03T00:22:58.302Z,30.5610
2023-04-03T00:23:09.331Z,30.5550
2023-04-03T00:23:20.376Z,30.5610
2023-04-03T00:23:31.458Z,30.5500
2023-04-03T00:23:42.492Z,30.5330
2023-04-03T00:23:53.559Z,30.5280
2023-04-03T00:24:04.611Z,30.5140
2023-04-03T00:24:15.648Z,30.5140
2023-04-03T00:24:26.676Z,30.5250
2023-04-03T00:24:37.738Z,30.5140
2023-04-03T00:24:48.782Z,30.5140
2023-04-03T00:24:59.860Z,30.5140
2023-04-03T00:25:10.895Z,30.5200
2023-04-03T00:25:21.985Z,30.5250
2023-04-03T00:25:33.077Z,30.5250
2023-04-03T00:25:44.112Z,30.5200
2023-04-03T00:25:55.170Z,30.5140
2023-04-03T00:26:06.207Z,30.5090
2023-04-03T00:26:17.232Z,30.5090
2023-04-03T00:26:28.272Z,30.4920
2023-04-03T00:26:39.312Z,30.4920
2023-04-03T00:26:50.375Z,30.4870
2023-04-03T00:27:01.440Z,30.4690
2023-04-03T00:27:12.509Z,30.4480
2023-04-03T00:27:23.549Z,30.4370
2023-04-03T00:27:34.608Z,30.4370
2023-04-03T00:27:45.654Z,30.4470
2023-04-03T00:27:56.728Z,30.4260
2023-04-03T00:28:07.786Z,30.4310
2023-04-03T00:28:18.838Z,30.4200
2023-04-03T00:28:29.907Z,30.4200
2023-04-03T00:28:40.963Z,30.4260
2023-04-03T00:28:52.026Z,30.4150
2023-04-03T00:29:03.072Z,30.4150
2023-04-03T00:29:14.174Z,30.4150
2023-04-03T00:29:25.201Z,30.4030
2023-04-03T00:29:36.241Z,30.4030
2023-04-03T00:29:47.304Z,30.3860
2023-04-03T00:29:58.358Z,30.3920
2023-04-03T00:30:09.419Z,30.3920
2023-04-03T00:30:20.479Z,30.3810
2023-04-03T00:30:31.530Z,30.3700
2023-04-03T00:30:42.585Z,30.3590
2023-04-03T00:30:53.642Z,30.3540
2023-04-03T00:31:04.727Z,30.3590
2023-04-03T00:31:15.820Z,30.3480
2023-04-03T00:31:26.919Z,30.3540
2023-04-03T00:31:37.943Z,30.3480
2023-04-03T00:31:48.992Z,30.3480
2023-04-03T00:32:00.064Z,30.3270
2023-04-03T00:32:11.153Z,30.3090
2023-04-03T00:32:22.186Z,30.3060
2023-04-03T00:32:33.255Z,30.3010
2023-04-03T00:32:44.309Z,30.2780
2023-04-03T00:32:55.391Z,30.2720
2023-04-03T00:33:06.500Z,30.2670
2023-04-03T00:33:17.590Z,30.2490
2023-04-03T00:33:28.653Z,30.2310
2023-04-03T00:33:39.712Z,30.2260
2023-04-03T00:33:50.765Z,30.2150
2023-04-03T00:34:01.820Z,30.2260
2023-04-03T00:34:12.854Z,30.2210
2023-04-03T00:34:23.927Z,30.2210
2023-04-03T00:34:35.007Z,30.2040
2023-04-03T00:34:46.093Z,30.2100
2023-04-03T00:34:57.148Z,30.1990
2023-04-03T00:35:08.189Z,30.1990
2023-04-03T00:35:19.273Z,30.1990
2023-04-03T00:35:30.330Z,30.1990
2023-04-03T00:35:41.491Z,30.2040
2023-04-03T00:35:52.675Z,30.2100
2023-04-03T00:36:03.783Z,30.2100
2023-04-03T00:36:14.902Z,30.2040
2023-04-03T00:36:26.054Z,30.1990
2023-04-03T00:36:37.144Z,30.2040
2023-04-03T00:36:48.266Z,30.1990
2023-04-03T00:36:59.473Z,30.1770
2023-04-03T00:37:10.593Z,30.1830
2023-04-03T00:37:21.621Z,30.1770
2023-04-03T00:37:32.674Z,30.1490
2023-04-03T00:37:43.712Z,30.1320
2023-04-03T00:37:54.808Z,30.1450
2023-04-03T00:38:05.997Z,30.1570
2023-04-03T00:38:17.067Z,30.1450
2023-04-03T00:38:28.126Z,30.1510
2023-04-03T00:38:39.150Z,30.1390
2023-04-03T00:38:50.190Z,30.1280
2023-04-03T00:39:01.257Z,30.1280
2023-04-03T00:39:12.287Z,30.1170
2023-04-03T00:39:23.335Z,30.1200
2023-04-03T00:39:34.384Z,30.1170
2023-04-03T00:39:45.439Z,30.1120
2023-04-03T00:39:56.465Z,30.1120
2023-04-03T00:40:07.501Z,30.0670
2023-04-03T00:40:18.599Z,30.0850
2023-04-03T00:40:29.646Z,30.0790
2023-04-03T00:40:40.713Z,30.0930
2023-04-03T00:40:51.776Z,30.1050
2023-04-03T00:41:02.824Z,30.1000
2023-04-03T00:41:13.874Z,30.1000
2023-04-03T00:41:24.934Z,30.0770
2023-04-03T00:41:35.992Z,30.0820
2023-04-03T00:41:47.063Z,30.0820
2023-04-03T00:41:58.127Z,30.0660
2023-04-03T00:42:09.195Z,30.0660
2023-04-03T00:42:20.248Z,30.0710
2023-04-03T00:42:31.311Z,30.0600
2023-04-03T00:42:42.390Z,30.0600
2023-04-03T00:42:53.421Z,30.0550
2023-04-03T00:43:04.471Z,30.0550
2023-04-03T00:43:15.547Z,30.0550
2023-04-03T00:43:26.565Z,30.0500
2023-04-03T00:43:37.548Z,30.0280
2023-04-03T00:43:48.601Z,30.0330
2023-04-03T00:43:59.634Z,30.0280
2023-04-03T00:44:10.724Z,30.0400
2023-04-03T00:44:21.787Z,30.0510
2023-04-03T00:44:32.809Z,30.0510
2023-04-03T00:44:43.862Z,30.0500
2023-04-03T00:44:54.911Z,30.0440
2023-04-03T00:45:05.974Z,30.0280
2023-04-03T00:45:17.043Z,30.0160
2023-04-03T00:45:28.055Z,30.0280
2023-04-03T00:45:39.124Z,30.0100
2023-04-03T00:45:50.172Z,29.9990
2023-04-03T00:46:01.198Z,29.9990
2023-04-03T00:46:12.272Z,29.9940
2023-04-03T00:46:23.369Z,29.9990
2023-04-03T00:46:34.431Z,29.9940
2023-04-03T00:46:45.540Z,29.9830
2023-04-03T00:46:56.616Z,29.9880
2023-04-03T00:47:07.686Z,29.9830
2023-04-03T00:47:18.721Z,29.9830
2023-04-03T00:47:29.780Z,29.9940
2023-04-03T00:47:40.872Z,30.0040
2023-04-03T00:47:52.016Z,29.9880
2023-04-03T00:48:03.105Z,29.9830
2023-04-03T00:48:14.156Z,29.9610
2023-04-03T00:48:25.218Z,29.9670
2023-04-03T00:48:36.264Z,29.9610
2023-04-03T00:48:47.312Z,29.9610
2023-04-03T00:48:58.354Z,29.9380
2023-04-03T00:49:09.392Z,29.9330
2023-04-03T00:49:20.449Z,29.9160
2023-04-03T00:49:31.476Z,29.9440
2023-04-03T00:49:42.540Z,29.9220
2023-04-03T00:49:53.558Z,29.9330
2023-04-03T00:50:04.611Z,29.9110
2023-04-03T00:50:15.663Z,29.9000
2023-04-03T00:50:26.714Z,29.8950
2023-04-03T00:50:38.025Z,29.9000
2023-04-03T00:50:49.259Z,29.9110
2023-04-03T00:51:00.311Z,29.9000
2023-04-03T00:51:11.351Z,29.9060
2023-04-03T00:51:22.425Z,29.9000
2023-04-03T00:51:33.469Z,29.8890
2023-04-03T00:51:44.517Z,29.8890
2023-04-03T00:51:55.557Z,29.8950
2023-04-03T00:52:06.619Z,29.8790
2023-04-03T00:52:17.674Z,29.8790
2023-04-03T00:52:28.715Z,29.8660
2023-04-03T00:52:39.774Z,29.8610
2023-04-03T00:52:50.835Z,29.8610
2023-04-03T00:53:01.874Z,29.8560
2023-04-03T00:53:12.924Z,29.8560
2023-04-03T00:53:23.951Z,29.8660
2023-04-03T00:53:34.984Z,29.8640
2023-04-03T00:53:46.029Z,29.8450
2023-04-03T00:53:57.071Z,29.8560
2023-04-03T00:54:08.108Z,29.8560
2023-04-03T00:54:19.155Z,29.8390
2023-04-03T00:54:30.220Z,29.8180
2023-04-03T00:54:41.277Z,29.8230
2023-04-03T00:54:52.344Z,29.8060
2023-04-03T00:55:03.395Z,29.8060
2023-04-03T00:55:14.452Z,29.7970
2023-04-03T00:55:25.513Z,29.7970
2023-04-03T00:55:36.615Z,29.8060
2023-04-03T00:55:47.714Z,29.8000
2023-04-03T00:55:58.891Z,29.8060
2023-04-03T00:56:09.987Z,29.8120
2023-04-03T00:56:21.032Z,29.8060
2023-04-03T00:56:32.081Z,29.8000
2023-04-03T00:56:43.152Z,29.7670
2023-04-03T00:56:54.330Z,29.7350
2023-04-03T00:57:05.417Z,29.7300
2023-04-03T00:57:16.536Z,29.7290
2023-04-03T00:57:27.642Z,29.7290
2023-04-03T00:57:38.755Z,29.7290
2023-04-03T00:57:49.785Z,29.7170
2023-04-03T00:58:00.847Z,29.7120
2023-04-03T00:58:12.048Z,29.7240
2023-04-03T00:58:23.113Z,29.7240
2023-04-03T00:58:34.170Z,29.7120
2023-04-03T00:58:45.211Z,29.7010
2023-04-03T00:58:56.278Z,29.6800
2023-04-03T00:59:07.357Z,29.6740
2023-04-03T00:59:18.408Z,29.6530
2023-04-03T00:59:29.479Z,29.6350
2023-04-03T00:59:40.504Z,29.6130
2023-04-03T00:59:51.552Z,29.6190
2023-04-03T01:00:02.646Z,29.6130
2023-04-03T01:00:13.715Z,29.6080
2023-04-03T01:00:24.781Z,29.5810
2023-04-03T01:00:36.228Z,29.5750
2023-04-03T01:00:47.673Z,29.5970
2023-04-03T01:00:58.728Z,29.5860
2023-04-03T01:01:09.758Z,29.5680
2023-04-03T01:01:20.888Z,29.5680
2023-04-03T01:01:32.026Z,29.5680
2023-04-03T01:01:43.075Z,29.5680
2023-04-03T01:01:54.273Z,29.5410
2023-04-03T01:02:05.384Z,29.5360
2023-04-03T01:02:16.423Z,29.5300
2023-04-03T01:02:27.535Z,29.5300
2023-04-03T01:02:38.612Z,29.5030
2023-04-03T01:02:49.698Z,29.5090
2023-04-03T01:03:00.747Z,29.4860
2023-04-03T01:03:11.771Z,29.4800
2023-04-03T01:03:22.833Z,29.4860
2023-04-03T01:03:33.906Z,29.4970
2023-04-03T01:03:44.969Z,29.5200
2023-04-03T01:03:56.088Z,29.5090
2023-04-03T01:04:07.182Z,29.4910
2023-04-03T01:04:18.236Z,29.4970
2023-04-03T01:04:29.315Z,29.5030
2023-04-03T01:04:40.484Z,29.4910
2023-04-03T01:04:51.595Z,29.4690
2023-04-03T01:05:02.672Z,29.4370
2023-04-03T01:05:13.736Z,29.4140
2023-04-03T01:05:24.782Z,29.4060
2023-04-03T01:05:35.838Z,29.3830
2023-04-03T01:05:46.876Z,29.3940
2023-04-03T01:05:57.979Z,29.3670
2023-04-03T01:06:09.031Z,29.3830
2023-04-03T01:06:20.124Z,29.3880
2023-04-03T01:06:31.170Z,29.3880
2023-04-03T01:06:42.207Z,29.3990
2023-04-03T01:06:53.259Z,29.3780
2023-04-03T01:07:04.317Z,29.3600
2023-04-03T01:07:15.363Z,29.3430
2023-04-03T01:07:26.503Z,29.3290
2023-04-03T01:07:37.584Z,29.3340
2023-04-03T01:07:48.628Z,29.3320
2023-04-03T01:07:59.673Z,29.3260
2023-04-03T01:08:10.721Z,29.3270
2023-04-03T01:08:21.788Z,29.3320
2023-04-03T01:08:32.857Z,29.3210
2023-04-03T01:08:43.918Z,29.3050
2023-04-03T01:08:54.974Z,29.2780
2023-04-03T01:09:06.036Z,29.2440
2023-04-03T01:09:17.092Z,29.2500
2023-04-03T01:09:28.219Z,29.2330
2023-04-03T01:09:39.255Z,29.2550
2023-04-03T01:09:50.318Z,29.2330
2023-04-03T01:10:01.384Z,29.2220
2023-04-03T01:10:12.454Z,29.1990
2023-04-03T01:10:23.599Z,29.1780
2023-04-03T01:10:35.252Z,29.1670
2023-04-03T01:10:46.714Z,29.1990
2023-04-03T01:10:57.814Z,29.1830
2023-04-03T01:11:08.917Z,29.1510
2023-04-03T01:11:19.962Z,29.1400
2023-04-03T01:11:31.011Z,29.1230
2023-04-03T01:11:42.084Z,29.1350
2023-04-03T01:11:53.158Z,29.1400
2023-04-03T01:12:04.214Z,29.1470
2023-04-03T01:12:15.248Z,29.1580
2023-04-03T01:12:26.320Z,29.1630
2023-04-03T01:12:37.397Z,29.1830
2023-04-03T01:12:48.436Z,29.1890
2023-04-03T01:12:59.473Z,29.1800
2023-04-03T01:13:10.555Z,29.1410
2023-04-03T01:13:21.582Z,29.1030
2023-04-03T01:13:32.618Z,29.0920
2023-04-03T01:13:43.674Z,29.0810
2023-04-03T01:13:54.777Z,29.0860
2023-04-03T01:14:05.815Z,29.0860
2023-04-03T01:14:16.846Z,29.0810
2023-04-03T01:14:27.896Z,29.0590
2023-04-03T01:14:38.983Z,29.0700
2023-04-03T01:14:50.007Z,29.0580
2023-04-03T01:15:01.049Z,29.0690
2023-04-03T01:15:12.152Z,29.0850
2023-04-03T01:15:23.206Z,29.0640
2023-04-03T01:15:34.264Z,29.0860
2023-04-03T01:15:45.395Z,29.0640
2023-04-03T01:15:56.502Z,29.0430
2023-04-03T01:16:07.741Z,29.0200
2023-04-03T01:16:18.934Z,28.9990
2023-04-03T01:16:30.035Z,28.9820
2023-04-03T01:16:41.178Z,28.9880
2023-04-03T01:16:52.236Z,28.9810
2023-04-03T01:17:03.282Z,28.9690
2023-04-03T01:17:14.319Z,28.9480
2023-04-03T01:17:25.367Z,28.9480
2023-04-03T01:17:36.468Z,28.9540
2023-04-03T01:17:47.535Z,28.9530
2023-04-03T01:17:58.594Z,28.9260
2023-04-03T01:18:09.665Z,28.8980
2023-04-03T01:18:20.744Z,28.8920
2023-04-03T01:18:31.792Z,28.8820
2023-04-03T01:18:42.859Z,28.8710
2023-04-03T01:18:53.890Z,28.9040
2023-04-03T01:19:04.913Z,28.9050
2023-04-03T01:19:15.961Z,28.9100
2023-04-03T01:19:27.008Z,28.8930
2023-04-03T01:19:38.056Z,28.8660
2023-04-03T01:19:49.125Z,28.8500
2023-04-03T01:20:00.185Z,28.8390
2023-04-03T01:20:11.225Z,28.8340
2023-04-03T01:20:22.296Z,28.8110
2023-04-03T01:20:33.426Z,28.8160
2023-04-03T01:20:44.488Z,28.8220
2023-04-03T01:20:55.553Z,28.8220
2023-04-03T01:21:06.608Z,28.7790
2023-04-03T01:21:17.689Z,28.7620
2023-04-03T01:21:28.789Z,28.7790
2023-04-03T01:21:39.847Z,28.7680
2023-04-03T01:21:50.914Z,28.7750
2023-04-03T01:22:01.986Z,28.7530
2023-04-03T01:22:13.030Z,28.6980
2023-04-03T01:22:24.061Z,28.6980
2023-04-03T01:22:35.117Z,28.6820
2023-04-03T01:22:46.154Z,28.6980
2023-04-03T01:22:57.220Z,28.7260
2023-04-03T01:23:08.267Z,28.7260
2023-04-03T01:23:19.318Z,28.7370
2023-04-03T01:23:30.378Z,28.7370
2023-04-03T01:23:41.418Z,28.7310
2023-04-03T01:23:52.490Z,28.7420
2023-04-03T01:24:03.561Z,28.7370
2023-04-03T01:24:14.594Z,28.7190
2023-04-03T01:24:25.656Z,28.7140
2023-04-03T01:24:36.695Z,28.7140
2023-04-03T01:24:47.756Z,28.7090
2023-04-03T01:24:58.834Z,28.6920
2023-04-03T01:25:09.865Z,28.6740
2023-04-03T01:25:20.965Z,28.6800
2023-04-03T01:25:32.020Z,28.6860
2023-04-03T01:25:43.092Z,28.6860
2023-04-03T01:25:54.113Z,28.6410
2023-04-03T01:26:05.179Z,28.6310
2023-04-03T01:26:16.239Z,28.6410
2023-04-03T01:26:27.278Z,28.6460
2023-04-03T01:26:38.343Z,28.6350
2023-04-03T01:26:49.404Z,28.6250
2023-04-03T01:27:00.452Z,28.6350
2023-04-03T01:27:11.562Z,28.6300
2023-04-03T01:27:22.620Z,28.6350
2023-04-03T01:27:33.670Z,28.6350
2023-04-03T01:27:44.715Z,28.6350
2023-04-03T01:27:55.765Z,28.6350
2023-04-03T01:28:06.825Z,28.6300
2023-04-03T01:28:17.884Z,28.6140
2023-04-03T01:28:28.959Z,28.6090
2023-04-03T01:28:40.008Z,28.6040
2023-04-03T01:28:51.086Z,28.5970
2023-04-03T01:29:02.159Z,28.5920
2023-04-03T01:29:13.237Z,28.5970
2023-04-03T01:29:24.277Z,28.5920
2023-04-03T01:29:35.322Z,28.5860
2023-04-03T01:29:46.384Z,28.5860
2023-04-03T01:29:57.393Z,28.5810
2023-04-03T01:30:08.450Z,28.5860
2023-04-03T01:30:19.477Z,28.5810
2023-04-03T01:30:30.538Z,28.5600
2023-04-03T01:30:41.610Z,28.5650
2023-04-03T01:30:52.624Z,28.5600
2023-04-03T01:31:03.777Z,28.5380
2023-04-03T01:31:14.857Z,28.5320
2023-04-03T01:31:25.943Z,28.5200
2023-04-03T01:31:37.038Z,28.5250
2023-04-03T01:31:48.120Z,28.5150
2023-04-03T01:31:59.339Z,28.5370
2023-04-03T01:32:10.442Z,28.5430
2023-04-03T01:32:21.501Z,28.5150
2023-04-03T01:32:32.600Z,28.5480
2023-04-03T01:32:43.712Z,28.5250
2023-04-03T01:32:54.752Z,28.5200
2023-04-03T01:33:05.841Z,28.4940
2023-04-03T01:33:16.921Z,28.4990
2023-04-03T01:33:27.976Z,28.5040
2023-04-03T01:33:39.014Z,28.5100
2023-04-03T01:33:50.078Z,28.4990
2023-04-03T01:34:01.122Z,28.5100
2023-04-03T01:34:12.177Z,28.4940
2023-04-03T01:34:23.234Z,28.4990
2023-04-03T01:34:34.297Z,28.4940
2023-04-03T01:34:45.356Z,28.4720
2023-04-03T01:34:56.416Z,28.4610
2023-04-03T01:35:07.490Z,28.4490
2023-04-03T01:35:18.543Z,28.4540
2023-04-03T01:35:29.600Z,28.4490
2023-04-03T01:35:40.689Z,28.4510
2023-04-03T01:35:51.764Z,28.4350
2023-04-03T01:36:02.850Z,28.4680
2023-04-03T01:36:13.928Z,28.4570
2023-04-03T01:36:24.987Z,28.4290
2023-04-03T01:36:36.037Z,28.4350
2023-04-03T01:36:47.096Z,28.4230
2023-04-03T01:36:58.154Z,28.4230
2023-04-03T01:37:09.212Z,28.4460
2023-04-03T01:37:20.238Z,28.4330
2023-04-03T01:37:31.277Z,28.4380
2023-04-03T01:37:42.357Z,28.4380
2023-04-03T01:37:53.406Z,28.4380
2023-04-03T01:38:04.434Z,28.4380
2023-04-03T01:38:15.498Z,28.4350
2023-04-03T01:38:26.529Z,28.4410
2023-04-03T01:38:37.576Z,28.3960
2023-04-03T01:38:48.615Z,28.3700
2023-04-03T01:38:59.676Z,28.3520
2023-04-03T01:39:10.788Z,28.3250
2023-04-03T01:39:21.847Z,28.3590
2023-04-03T01:39:32.912Z,28.3470
2023-04-03T01:39:43.965Z,28.3560
2023-04-03T01:39:54.990Z,28.3450
2023-04-03T01:40:06.040Z,28.3250
2023-04-03T01:40:17.075Z,28.3200
2023-04-03T01:40:28.113Z,28.3360
2023-04-03T01:40:39.298Z,28.3420
2023-04-03T01:40:50.365Z,28.3200
2023-04-03T01:41:01.395Z,28.2990
2023-04-03T01:41:12.450Z,28.2650
2023-04-03T01:41:23.514Z,28.2930
2023-04-03T01:41:34.594Z,28.3200
2023-04-03T01:41:45.670Z,28.3130
2023-04-03T01:41:56.735Z,28.3240
2023-04-03T01:42:07.815Z,28.3090
2023-04-03T01:42:18.859Z,28.2810
2023-04-03T01:42:29.918Z,28.2700
2023-04-03T01:42:40.977Z,28.2650
2023-04-03T01:42:52.040Z,28.2330
2023-04-03T01:43:03.077Z,28.2540
2023-04-03T01:43:14.143Z,28.2810
2023-04-03T01:43:25.164Z,28.2700
2023-04-03T01:43:36.222Z,28.2540
2023-04-03T01:43:47.289Z,28.2300
2023-04-03T01:43:58.359Z,28.2190
2023-04-03T01:44:09.416Z,28.2050
2023-04-03T01:44:20.460Z,28.1990
2023-04-03T01:44:31.514Z,28.1830
2023-04-03T01:44:42.574Z,28.1990
2023-04-03T01:44:53.650Z,28.2280
2023-04-03T01:45:04.693Z,28.2280
2023-04-03T01:45:15.730Z,28.2170
2023-04-03T01:45:26.882Z,28.2050
2023-04-03T01:45:37.911Z,28.1930
2023-04-03T01:45:48.991Z,28.1980
2023-04-03T01:46:00.111Z,28.1660
2023-04-03T01:46:11.241Z,28.1600
2023-04-03T01:46:22.271Z,28.1430
2023-04-03T01:46:33.386Z,28.1540
2023-04-03T01:46:44.436Z,28.1710
2023-04-03T01:46:55.465Z,28.1660
2023-04-03T01:47:06.523Z,28.1490
2023-04-03T01:47:17.584Z,28.1330
2023-04-03T01:47:28.628Z,28.1330
2023-04-03T01:47:39.768Z,28.1330
2023-04-03T01:47:50.935Z,28.1430
2023-04-03T01:48:02.048Z,28.1510
2023-04-03T01:48:13.117Z,28.1730
2023-04-03T01:48:24.164Z,28.1350
2023-04-03T01:48:35.204Z,28.1230
2023-04-03T01:48:46.273Z,28.1020
2023-04-03T01:48:57.338Z,28.1020
2023-04-03T01:49:08.403Z,28.0910
2023-04-03T01:49:19.463Z,28.0800
2023-04-03T01:49:30.513Z,28.0750
2023-04-03T01:49:41.545Z,28.0800
2023-04-03T01:49:52.623Z,28.0860
2023-04-03T01:50:03.682Z,28.0640
2023-04-03T01:50:14.734Z,28.0640
2023-04-03T01:50:25.755Z,28.0640
2023-04-03T01:50:37.277Z,28.0860
2023-04-03T01:50:48.647Z,28.1070
2023-04-03T01:50:59.680Z,28.0960
2023-04-03T01:51:10.733Z,28.0800
2023-04-03T01:51:21.784Z,28.0700
2023-04-03T01:51:32.836Z,28.0410
2023-04-03T01:51:43.937Z,28.0360
2023-04-03T01:51:54.987Z,28.0410
2023-04-03T01:52:06.045Z,28.0360
2023-04-03T01:52:17.089Z,28.0200
2023-04-03T01:52:28.135Z,28.0200
2023-04-03T01:52:39.200Z,28.0200
2023-04-03T01:52:50.258Z,28.0090
2023-04-03T01:53:01.331Z,28.0150
2023-04-03T01:53:12.384Z,28.0130
2023-04-03T01:53:23.449Z,28.0300
2023-04-03T01:53:34.477Z,28.0400
2023-04-03T01:53:45.531Z,28.0350
2023-04-03T01:53:56.584Z,28.0240
2023-04-03T01:54:07.633Z,28.0300
2023-04-03T01:54:18.690Z,27.9930
2023-04-03T01:54:29.727Z,27.9760
2023-04-03T01:54:40.791Z,27.9760
2023-04-03T01:54:51.838Z,27.9760
2023-04-03T01:55:02.886Z,28.0040
2023-04-03T01:55:13.935Z,28.0190
2023-04-03T01:55:24.971Z,28.0130
2023-04-03T01:55:36.036Z,27.9960
2023-04-03T01:55:47.091Z,27.9910
2023-04-03T01:55:58.136Z,27.9530
2023-04-03T01:56:09.226Z,27.9580
2023-04-03T01:56:20.269Z,27.9640
2023-04-03T01:56:31.319Z,27.9750
2023-04-03T01:56:42.385Z,27.9540
2023-04-03T01:56:53.505Z,27.9480
2023-04-03T01:57:04.613Z,27.9480
2023-04-03T01:57:15.681Z,27.9250
2023-04-03T01:57:26.775Z,27.9090
2023-04-03T01:57:37.847Z,27.9040
2023-04-03T01:57:48.898Z,27.9090
2023-04-03T01:57:59.942Z,27.9150
2023-04-03T01:58:11.013Z,27.8940
2023-04-03T01:58:22.037Z,27.8880
2023-04-03T01:58:33.115Z,27.8980
2023-04-03T01:58:44.174Z,27.8980
2023-04-03T01:58:55.239Z,27.8820
2023-04-03T01:59:06.330Z,27.8820
2023-04-03T01:59:17.374Z,27.8880
2023-04-03T01:59:28.443Z,27.8880
2023-04-03T01:59:39.499Z,27.8720
2023-04-03T01:59:50.540Z,27.8880
2023-04-03T02:00:01.715Z,27.8980
2023-04-03T02:00:12.726Z,27.8930
2023-04-03T02:00:23.790Z,27.8930
2023-04-03T02:00:35.068Z,27.8720
2023-04-03T02:00:46.417Z,27.8730
2023-04-03T02:00:57.557Z,27.8730
2023-04-03T02:01:08.763Z,27.8780
2023-04-03T02:01:19.921Z,27.8890
2023-04-03T02:01:31.070Z,27.8930
2023-04-03T02:01:42.223Z,27.8840
2023-04-03T02:01:53.278Z,27.8520
2023-04-03T02:02:04.347Z,27.8290
2023-04-03T02:02:15.392Z,27.8290
2023-04-03T02:02:26.440Z,27.8460
2023-04-03T02:02:37.530Z,27.8460
2023-04-03T02:02:48.567Z,27.8570
2023-04-03T02:02:59.664Z,27.8570
2023-04-03T02:03:10.728Z,27.8460
2023-04-03T02:03:21.754Z,27.8680
2023-04-03T02:03:32.818Z,27.8520
2023-04-03T02:03:43.882Z,27.8620
2023-04-03T02:03:54.951Z,27.8340
2023-04-03T02:04:06.057Z,27.8410
2023-04-03T02:04:17.136Z,27.8340
2023-04-03T02:04:28.346Z,27.8440
2023-04-03T02:04:39.398Z,27.8380
2023-04-03T02:04:50.455Z,27.8280
2023-04-03T02:05:01.526Z,27.8380
2023-04-03T02:05:12.605Z,27.8220
2023-04-03T02:05:23.690Z,27.8220
2023-04-03T02:05:34.726Z,27.8120
2023-04-03T02:05:45.762Z,27.8120
2023-04-03T02:05:56.816Z,27.7960
2023-04-03T02:06:07.880Z,27.7730
2023-04-03T02:06:18.940Z,27.7760
2023-04-03T02:06:29.982Z,27.7700
2023-04-03T02:06:41.034Z,27.7860
2023-04-03T02:06:52.096Z,27.7650
2023-04-03T02:07:03.162Z,27.7480
2023-04-03T02:07:14.220Z,27.7420
2023-04-03T02:07:25.277Z,27.7420
2023-04-03T02:07:36.345Z,27.7480
2023-04-03T02:07:47.415Z,27.7420
2023-04-03T02:07:58.481Z,27.7480
2023-04-03T02:08:09.559Z,27.7530
2023-04-03T02:08:20.612Z,27.7650
2023-04-03T02:08:31.634Z,27.7580
2023-04-03T02:08:42.725Z,27.7420
2023-04-03T02:08:53.780Z,27.7370
2023-04-03T02:09:04.813Z,27.7210
2023-04-03T02:09:15.864Z,27.7210
2023-04-03T02:09:26.914Z,27.7160
2023-04-03T02:09:37.979Z,27.6990
2023-04-03T02:09:49.030Z,27.6990
2023-04-03T02:10:00.144Z,27.6990
2023-04-03T02:10:11.172Z,27.7050
2023-04-03T02:10:22.222Z,27.7210
2023-04-03T02:10:33.270Z,27.7260
2023-04-03T02:10:44.316Z,27.7210
2023-04-03T02:10:55.373Z,27.6940
2023-04-03T02:11:06.440Z,27.6990
2023-04-03T02:11:17.484Z,27.6820
2023-04-03T02:11:28.552Z,27.6710
2023-04-03T02:11:39.614Z,27.6710
2023-04-03T02:11:50.679Z,27.6820
2023-04-03T02:12:01.742Z,27.6870
2023-04-03T02:12:12.825Z,27.6810
2023-04-03T02:12:23.921Z,27.6750
2023-04-03T02:12:34.976Z,27.6650
2023-04-03T02:12:46.040Z,27.6810
2023-04-03T02:12:57.069Z,27.6910
2023-04-03T02:13:08.126Z,27.6810
2023-04-03T02:13:19.174Z,27.6660
2023-04-03T02:13:30.209Z,27.6660
2023-04-03T02:13:41.241Z,27.6560
2023-04-03T02:13:52.290Z,27.6500